Time;durP1;ratioP1;P1;durP2;ratioP2;P2;SDS_P1;SDS_P2;PMS_P1;PMS_P2;Temp;Humidity;BMP_temperature;BMP_pressure;BME280_temperature;BME280_humidity;BME280_pressure;Samples;Min_cycle;Max_cycle;Signal;HPM_P1;HPM_P2
2022/05/17 00:01:39;;;;;;;4.73;1.27;;;;;;;4.85;63.25;100251.93;1763055;81;20948;-60
2022/05/17 00:04:06;;;;;;;3.77;1.33;;;;;;;4.85;63.25;100251.93;1779149;79;21382;-60
2022/05/17 00:06:33;;;;;;;3.83;1.70;;;;;;;4.82;63.45;100253.72;1770711;79;20988;-60
2022/05/17 00:08:59;;;;;;;3.02;1.45;;;;;;;4.81;63.52;100250.25;1742580;81;20918;-60
2022/05/17 00:11:28;;;;;;;4.62;1.45;;;;;;;4.79;63.53;100245.98;1776858;79;21001;-60
2022/05/17 00:13:55;;;;;;;9.90;1.60;;;;;;;4.76;63.59;100246.02;1771733;79;22323;-60
2022/05/17 00:16:22;;;;;;;3.20;1.50;;;;;;;4.73;63.65;100248.66;1762313;81;21104;-60
2022/05/17 00:18:49;;;;;;;3.67;1.40;;;;;;;4.70;63.76;100245.67;1772627;79;20924;-60
2022/05/17 00:21:16;;;;;;;3.52;1.67;;;;;;;4.67;63.80;100250.45;1771749;79;21489;-60
2022/05/17 00:23:43;;;;;;;4.20;1.15;;;;;;;4.64;63.84;100248.36;1745735;81;20964;-60
2022/05/17 00:26:10;;;;;;;4.92;1.50;;;;;;;4.61;63.83;100244.53;1750150;81;27044;-60
2022/05/17 00:28:39;;;;;;;4.50;1.25;;;;;;;4.58;63.93;100240.25;1767829;79;21090;-60
2022/05/17 00:31:06;;;;;;;3.98;1.42;;;;;;;4.56;63.90;100242.00;1778800;78;21131;-60
2022/05/17 00:33:34;;;;;;;4.55;1.15;;;;;;;4.53;64.10;100242.05;1745896;81;22478;-59
2022/05/17 00:36:02;;;;;;;3.85;1.30;;;;;;;4.51;64.14;100244.23;1776249;79;21631;-60
2022/05/17 00:38:29;;;;;;;4.45;1.57;;;;;;;4.46;64.35;100240.44;1780145;79;20983;-60
2022/05/17 00:40:56;;;;;;;2.65;1.27;;;;;;;4.39;64.31;100243.97;1758686;79;21528;-60
2022/05/17 00:46:32;;;;;;;5.83;1.85;;;;;;;4.24;64.51;100239.88;1763955;80;21067;-61
2022/05/17 00:48:59;;;;;;;2.77;1.40;;;;;;;4.17;64.60;100241.69;1739152;81;21017;-61
2022/05/17 00:51:28;;;;;;;;;;;;;;;4.12;64.78;100241.33;1749753;81;21097;-60
2022/05/17 00:54:02;;;;;;;6.65;1.65;;;;;;;4.07;64.99;100232.78;1739900;81;21443;-61
2022/05/17 00:56:30;;;;;;;4.40;1.85;;;;;;;4.02;65.01;100236.70;1760698;81;21021;-60
2022/05/17 00:58:59;;;;;;;;;;;;;;;4.01;65.09;100237.58;1766867;80;21092;-60
2022/05/17 01:01:30;;;;;;;4.08;1.90;;;;;;;4.00;65.16;100233.27;1765665;81;20133;-61
2022/05/17 01:04:05;;;;;;;4.35;1.30;;;;;;;3.97;65.23;100230.73;1758376;80;20995;-61
2022/05/17 01:06:39;;;;;;;3.17;1.60;;;;;;;3.96;65.32;100230.31;1765214;81;22046;-60
2022/05/17 01:09:06;;;;;;;6.62;2.00;;;;;;;3.88;65.28;100220.52;1760928;80;21035;-60
2022/05/17 01:11:32;;;;;;;4.80;1.87;;;;;;;3.81;65.38;100223.17;1762741;79;21575;-61
2022/05/17 01:16:44;;;;;;;6.05;1.98;;;;;;;3.74;65.57;100229.27;1763787;80;21093;-60
2022/05/17 01:19:13;;;;;;;6.60;2.20;;;;;;;3.70;65.71;100227.61;1765283;79;21473;-61
2022/05/17 01:21:40;;;;;;;4.80;1.82;;;;;;;3.70;65.78;100225.02;1759114;79;21781;-61
2022/05/17 01:24:07;;;;;;;;;;;;;;;3.70;65.83;100226.76;1765946;80;21095;-61
2022/05/17 01:26:38;;;;;;;8.58;2.27;;;;;;;3.64;65.87;100228.97;1760120;81;20094;-61
2022/05/17 01:29:06;;;;;;;8.93;2.33;;;;;;;3.61;65.82;100230.27;1758165;80;21088;-61
2022/05/17 01:31:35;;;;;;;6.80;2.25;;;;;;;3.58;66.03;100226.42;1758560;80;21063;-61
2022/05/17 01:34:01;;;;;;;5.97;1.80;;;;;;;3.56;66.14;100228.20;1761385;79;20978;-60
2022/05/17 01:36:30;;;;;;;6.00;2.13;;;;;;;3.56;66.16;100232.06;1726964;81;20961;-61
2022/05/17 01:38:57;;;;;;;5.65;2.30;;;;;;;3.56;66.18;100224.33;1737360;81;21070;-61
2022/05/17 01:41:25;;;;;;;4.90;2.12;;;;;;;3.53;66.32;100229.52;1764348;79;21047;-60
2022/05/17 01:43:53;;;;;;;7.00;2.30;;;;;;;3.51;66.41;100226.09;1734592;81;21134;-61
2022/05/17 01:46:20;;;;;;;8.55;2.87;;;;;;;3.51;66.46;100232.55;1752731;79;21080;-61
2022/05/17 01:48:48;;;;;;;5.05;2.47;;;;;;;3.52;66.61;100227.79;1754044;79;21763;-61
2022/05/17 01:51:15;;;;;;;8.75;2.45;;;;;;;3.54;66.68;100226.05;1749323;81;27057;-61
2022/05/17 01:53:42;;;;;;;;;;;;;;;3.55;66.75;100229.05;1785650;79;20974;-61
2022/05/17 01:56:09;;;;;;;5.43;2.63;;;;;;;3.56;66.95;100230.78;1788830;79;21058;-60
2022/05/17 01:58:37;;;;;;;5.92;2.47;;;;;;;3.55;66.98;100235.50;1786464;79;21793;-61
2022/05/17 02:01:07;;;;;;;6.05;2.25;;;;;;;3.52;66.92;100231.66;1777810;78;20930;-60
2022/05/17 02:03:34;;;;;;;4.42;2.30;;;;;;;3.50;67.09;100232.11;1771135;79;21120;-61
2022/05/17 02:06:02;;;;;;;7.47;2.95;;;;;;;3.52;67.18;100236.39;1750631;81;20959;-60
2022/05/17 02:08:29;;;;;;;5.92;2.20;;;;;;;3.55;67.31;100227.75;1770212;79;21606;-61
2022/05/17 02:10:57;;;;;;;4.62;2.27;;;;;;;3.53;67.17;100229.52;1761930;79;21579;-60
2022/05/17 02:13:24;;;;;;;9.25;2.42;;;;;;;3.53;67.29;100230.81;1761036;79;21053;-61
2022/05/17 02:15:51;;;;;;;3.55;1.92;;;;;;;3.52;67.33;100235.53;1772293;79;20997;-61
2022/05/17 02:18:17;;;;;;;9.90;2.97;;;;;;;3.50;67.32;100234.69;1746207;81;20939;-61
2022/05/17 02:20:44;;;;;;;3.83;2.15;;;;;;;3.47;67.33;100233.43;1779453;78;21066;-60
2022/05/17 02:23:11;;;;;;;5.78;2.47;;;;;;;3.44;67.39;100229.59;1748714;81;21002;-61
2022/05/17 02:25:37;;;;;;;5.07;1.63;;;;;;;3.43;67.61;100227.89;1771477;79;20998;-61
2022/05/17 02:28:08;;;;;;;4.23;2.10;;;;;;;3.45;67.77;100228.74;1760951;79;21562;-60
2022/05/17 02:30:35;;;;;;;5.72;2.25;;;;;;;3.47;67.83;100226.98;1780064;78;21081;-61
2022/05/17 02:33:04;;;;;;;5.08;2.25;;;;;;;3.49;67.83;100230.41;1768281;80;22264;-61
2022/05/17 02:35:31;;;;;;;5.55;2.27;;;;;;;3.51;67.86;100232.55;1756326;81;21609;-60
2022/05/17 02:37:58;;;;;;;5.08;2.25;;;;;;;3.56;67.91;100232.06;1770739;79;21028;-60
2022/05/17 02:40:24;;;;;;;6.23;1.93;;;;;;;3.63;67.94;100225.95;1772043;79;21080;-60
2022/05/17 02:42:51;;;;;;;5.80;2.30;;;;;;;3.66;67.88;100228.50;1765964;79;21214;-61
2022/05/17 02:45:18;;;;;;;9.18;2.47;;;;;;;3.69;68.01;100231.04;1758592;81;21624;-60
2022/05/17 02:47:45;;;;;;;10.55;2.77;;;;;;;3.77;68.12;100228.38;1717979;82;21052;-61
2022/05/17 02:50:12;;;;;;;5.17;2.25;;;;;;;3.83;68.24;100240.37;1746501;81;22302;-62
2022/05/17 02:52:39;;;;;;;4.72;2.15;;;;;;;3.87;68.21;100239.48;1747407;80;21085;-61
2022/05/17 02:55:08;;;;;;;4.62;2.12;;;;;;;3.93;68.26;100240.70;1749584;79;20967;-62
2022/05/17 02:57:35;;;;;;;6.85;1.80;;;;;;;4.00;68.35;100243.61;1747768;81;21001;-60
2022/05/17 03:00:05;;;;;;;9.97;2.53;;;;;;;4.10;68.45;100240.05;1748066;81;21012;-60
2022/05/17 03:02:32;;;;;;;6.72;2.30;;;;;;;4.14;68.42;100242.99;1748358;81;21092;-61
2022/05/17 03:04:58;;;;;;;5.25;2.40;;;;;;;4.17;68.38;100244.27;1744476;81;20988;-61
2022/05/17 03:07:25;;;;;;;10.78;2.17;;;;;;;4.22;68.35;100244.20;1744803;81;21127;-61
2022/05/17 03:09:52;;;;;;;4.95;1.80;;;;;;;4.29;68.49;100241.11;1744157;81;21414;-61
2022/05/17 03:12:19;;;;;;;4.75;2.05;;;;;;;4.35;68.60;100248.34;1749950;81;21020;-60
2022/05/17 03:14:45;;;;;;;11.00;2.60;;;;;;;4.40;68.62;100237.95;1712361;82;21492;-61
2022/05/17 03:17:15;;;;;;;5.03;2.33;;;;;;;4.45;68.70;100244.77;1727096;81;21006;-61
2022/05/17 03:19:42;;;;;;;17.75;3.37;;;;;;;4.52;68.80;100235.62;1737963;81;21033;-60
2022/05/17 03:22:10;;;;;;;11.28;2.75;;;;;;;4.61;68.84;100236.77;1739036;81;22066;-61
2022/05/17 03:24:37;;;;;;;9.83;2.40;;;;;;;4.72;68.96;100245.23;1729233;81;21595;-61
2022/05/17 03:27:07;;;;;;;6.55;2.30;;;;;;;4.81;69.01;100242.94;1753036;81;21072;-61
2022/05/17 03:29:34;;;;;;;6.62;2.10;;;;;;;4.87;69.02;100249.30;1749399;81;20944;-61
2022/05/17 03:32:01;;;;;;;6.45;1.95;;;;;;;4.98;69.14;100246.55;1746809;81;21245;-61
2022/05/17 03:34:28;;;;;;;4.87;1.80;;;;;;;5.09;69.16;100248.08;1750773;81;21446;-61
2022/05/17 03:36:55;;;;;;;;;;;;;;;5.28;69.22;100238.72;1749967;81;20999;-62
2022/05/17 03:39:22;;;;;;;12.47;2.73;;;;;;;5.56;69.35;100255.47;1752362;81;20783;-61
2022/05/17 03:41:49;;;;;;;8.90;2.07;;;;;;;5.74;69.17;100241.75;1747454;79;21591;-61
2022/05/17 03:44:17;;;;;;;8.45;2.22;;;;;;;6.09;69.62;100245.44;1725621;81;21732;-61
2022/05/17 03:46:44;;;;;;;7.67;2.08;;;;;;;6.58;69.39;100241.36;1746265;80;22356;-61
2022/05/17 03:49:11;;;;;;;;;;;;;;;6.89;69.10;100245.39;1769300;80;21524;-61
2022/05/17 03:51:38;;;;;;;9.10;2.08;;;;;;;7.15;69.02;100237.41;1768940;80;20099;-61
2022/05/17 03:54:05;;;;;;;10.08;2.00;;;;;;;7.42;69.20;100241.47;1772377;78;21072;-61
2022/05/17 03:56:32;;;;;;;8.25;2.42;;;;;;;7.78;68.73;100245.69;1772396;80;21032;-61
2022/05/17 03:58:59;;;;;;;7.05;1.87;;;;;;;8.08;68.72;100249.64;1770812;80;21234;-61
2022/05/17 04:01:25;;;;;;;7.85;1.57;;;;;;;8.32;68.86;100245.91;1766453;80;21538;-61
2022/05/17 04:03:52;;;;;;;14.20;2.42;;;;;;;8.94;69.17;100243.17;1769621;80;20916;-61
2022/05/17 04:06:19;;;;;;;21.40;2.63;;;;;;;9.89;68.96;100242.53;1766933;78;21123;-61
2022/05/17 04:08:46;;;;;;;;;;;;;;;10.44;68.60;100244.86;1774942;80;21598;-62
2022/05/17 04:11:13;;;;;;;2.08;0.70;;;;;;;11.60;69.04;100236.20;1751751;80;21106;-61
2022/05/17 04:13:39;;;;;;;2.67;0.68;;;;;;;12.14;67.41;100239.08;1748789;80;21092;-62
2022/05/17 04:16:06;;;;;;;2.15;0.82;;;;;;;13.04;68.03;100239.19;1748391;80;22583;-62
2022/05/17 04:18:33;;;;;;;2.72;0.80;;;;;;;13.40;67.45;100239.63;1748017;80;20943;-61
2022/05/17 04:21:04;;;;;;;0.78;0.50;;;;;;;13.86;67.06;100238.11;1740322;80;21038;-62
2022/05/17 04:23:31;;;;;;;1.40;0.70;;;;;;;13.42;65.71;100243.03;1765731;80;21081;-61
2022/05/17 04:25:58;;;;;;;;;;;;;;;12.88;65.85;100236.48;1773381;80;20979;-61
2022/05/17 04:28:25;;;;;;;1.22;0.55;;;;;;;12.54;65.50;100238.55;1740962;81;20554;-62
2022/05/17 04:30:52;;;;;;;3.67;0.68;;;;;;;12.51;65.76;100246.55;1751372;80;22202;-62
2022/05/17 04:33:19;;;;;;;2.47;0.70;;;;;;;12.29;65.40;100245.38;1764872;80;21049;-62
2022/05/17 04:35:45;;;;;;;1.05;0.60;;;;;;;12.03;65.41;100253.12;1751639;81;21209;-61
2022/05/17 04:38:12;;;;;;;3.75;0.50;;;;;;;12.02;65.88;100248.81;1742318;81;21504;-62
2022/05/17 04:40:41;;;;;;;7.55;0.95;;;;;;;12.78;66.25;100249.64;1747173;81;21068;-62
2022/05/17 04:43:11;;;;;;;2.95;0.70;;;;;;;14.22;66.56;100248.03;1757844;80;21132;-62
2022/05/17 04:45:38;;;;;;;0.80;0.55;;;;;;;14.99;64.08;100249.45;1759831;80;21048;-62
2022/05/17 04:48:06;;;;;;;3.87;0.70;;;;;;;14.73;64.04;100255.32;1762097;79;21084;-62
2022/05/17 04:50:34;;;;;;;1.85;0.60;;;;;;;15.94;65.00;100242.18;1767387;79;20932;-62
2022/05/17 04:53:00;;;;;;;1.15;0.60;;;;;;;17.18;63.78;100245.66;1766970;79;21090;-62
2022/05/17 04:55:30;;;;;;;2.70;1.05;;;;;;;17.34;61.82;100249.93;1759576;80;21599;-62
2022/05/17 04:57:57;;;;;;;0.85;0.50;;;;;;;16.67;61.88;100249.89;1755920;79;21020;-63
2022/05/17 05:00:26;;;;;;;3.42;0.85;;;;;;;15.71;60.97;100251.45;1765970;79;21491;-62
2022/05/17 05:02:54;;;;;;;3.87;0.78;;;;;;;15.11;61.60;100258.89;1746841;81;21016;-62
2022/05/17 05:05:23;;;;;;;2.80;0.80;;;;;;;15.66;62.40;100256.97;1774668;79;21093;-62
2022/05/17 05:07:50;;;;;;;3.33;0.70;;;;;;;16.87;62.31;100260.02;1760909;79;21037;-65
2022/05/17 05:10:18;;;;;;;5.10;0.95;;;;;;;17.81;61.05;100251.14;1762605;79;21029;-63
2022/05/17 05:12:46;;;;;;;3.65;0.80;;;;;;;18.49;61.70;100258.67;1772411;79;21853;-63
2022/05/17 05:15:15;;;;;;;3.30;0.95;;;;;;;18.80;59.36;100251.20;1782963;79;21000;-62
2022/05/17 05:17:43;;;;;;;1.92;0.80;;;;;;;18.45;57.16;100252.38;1781361;79;21101;-63
2022/05/17 05:20:15;;;;;;;4.70;1.05;;;;;;;17.28;56.76;100256.47;1778992;79;21020;-62
2022/05/17 05:22:42;;;;;;;1.62;1.00;;;;;;;17.05;57.88;100263.23;1758410;79;21001;-66
2022/05/17 05:25:15;;;;;;;2.80;1.05;;;;;;;17.98;58.00;100250.84;1753079;79;21172;-63
2022/05/17 05:27:42;;;;;;;3.55;0.90;;;;;;;18.16;56.51;100257.11;1777759;79;21673;-63
2022/05/17 05:30:13;;;;;;;3.47;1.07;;;;;;;17.81;55.22;100259.94;1781340;79;21602;-62
2022/05/17 05:32:41;;;;;;;4.92;1.12;;;;;;;17.00;54.55;100268.00;1762247;80;21103;-63
2022/05/17 05:35:10;;;;;;;14.63;2.22;;;;;;;16.32;54.56;100263.02;1767017;80;21047;-60
2022/05/17 05:37:37;;;;;;;3.95;1.00;;;;;;;16.08;55.38;100265.88;1781676;78;21090;-62
2022/05/17 05:40:06;;;;;;;5.85;1.47;;;;;;;16.98;55.17;100263.28;1762127;79;21695;-63
2022/05/17 05:42:33;;;;;;;0.90;0.53;;;;;;;17.66;54.18;100271.02;1772038;79;21516;-63
2022/05/17 05:45:01;;;;;;;3.22;1.00;;;;;;;18.26;53.84;100270.02;1748544;81;21006;-63
2022/05/17 05:47:28;;;;;;;3.85;1.12;;;;;;;18.37;52.29;100267.95;1775431;79;21606;-62
2022/05/17 05:49:55;;;;;;;6.05;1.10;;;;;;;18.24;51.82;100266.66;1723487;81;21351;-63
2022/05/17 05:52:23;;;;;;;3.90;0.88;;;;;;;17.63;51.01;100274.36;1744389;81;21103;-62
2022/05/17 05:54:50;;;;;;;101.53;6.53;;;;;;;17.20;50.77;100272.80;1749433;79;21094;-62
2022/05/17 05:57:16;;;;;;;3.62;0.80;;;;;;;16.84;50.42;100267.30;1774199;80;20990;-62
2022/05/17 05:59:43;;;;;;;3.25;1.00;;;;;;;16.61;49.80;100268.27;1738052;81;21607;-62
2022/05/17 06:02:11;;;;;;;3.62;0.78;;;;;;;16.47;49.40;100277.52;1724156;81;22287;-63
2022/05/17 06:04:39;;;;;;;4.15;1.12;;;;;;;16.23;49.46;100275.45;1764979;80;21545;-62
2022/05/17 06:07:06;;;;;;;4.20;0.85;;;;;;;15.96;49.29;100273.19;1741075;80;21069;-62
2022/05/17 06:09:33;;;;;;;5.15;0.95;;;;;;;15.86;49.05;100272.44;1730361;81;21150;-62
2022/05/17 06:12:00;;;;;;;6.42;0.85;;;;;;;15.66;49.13;100272.77;1764295;80;27349;-63
2022/05/17 06:14:27;;;;;;;8.30;1.02;;;;;;;15.65;49.01;100277.64;1738286;80;21099;-62
2022/05/17 06:16:55;;;;;;;5.17;1.12;;;;;;;15.57;48.39;100278.55;1768407;80;21072;-62
2022/05/17 06:19:23;;;;;;;21.95;2.70;;;;;;;15.33;48.45;100285.64;1763248;80;21008;-62
2022/05/17 06:21:51;;;;;;;5.95;1.05;;;;;;;15.18;48.50;100285.23;1765697;80;20956;-62
2022/05/17 06:24:21;;;;;;;6.42;1.35;;;;;;;15.41;48.64;100284.73;1764661;80;21085;-62
2022/05/17 06:26:47;;;;;;;5.97;1.42;;;;;;;15.86;48.83;100281.66;1763187;80;21902;-62
2022/05/17 06:29:14;;;;;;;4.53;0.85;;;;;;;15.86;48.21;100288.24;1740296;81;21608;-63
2022/05/17 06:31:41;;;;;;;1.98;0.98;;;;;;;16.14;48.47;100289.20;1769259;79;21012;-62
2022/05/17 06:34:08;;;;;;;;;;;;;;;16.50;48.39;100283.44;1741805;81;21060;-62
2022/05/17 06:36:34;;;;;;;;;;;;;;;16.73;47.63;100289.04;1772668;80;20168;-62
2022/05/17 06:39:01;;;;;;;3.10;0.90;;;;;;;16.97;47.05;100289.27;1765310;80;21275;-62
2022/05/17 06:41:28;;;;;;;2.90;0.65;;;;;;;17.02;46.24;100287.19;1770018;80;21060;-62
2022/05/17 06:43:55;;;;;;;2.80;0.90;;;;;;;17.03;46.62;100288.89;1767057;79;21002;-61
2022/05/17 06:46:21;;;;;;;5.40;0.68;;;;;;;17.21;46.48;100285.03;1763369;79;20971;-63
2022/05/17 06:48:48;;;;;;;4.72;0.80;;;;;;;17.34;46.02;100285.56;1778642;79;21104;-62
2022/05/17 06:51:15;;;;;;;3.37;0.53;;;;;;;17.66;45.90;100282.91;1784524;78;21098;-62
2022/05/17 06:53:42;;;;;;;2.62;0.53;;;;;;;17.76;45.07;100284.94;1774587;79;21484;-61
2022/05/17 06:56:11;;;;;;;2.62;0.60;;;;;;;17.59;44.57;100289.57;1774488;79;21041;-62
2022/05/17 06:58:38;;;;;;;3.50;0.78;;;;;;;17.46;43.83;100292.66;1777129;79;20963;-62
2022/05/17 07:01:05;;;;;;;3.90;0.62;;;;;;;17.26;43.14;100295.78;1780088;79;21018;-61
2022/05/17 07:03:32;;;;;;;1.50;0.50;;;;;;;16.85;42.83;100296.66;1770993;79;21581;-61
2022/05/17 07:06:02;;;;;;;2.62;0.50;;;;;;;16.63;41.66;100290.08;1775502;79;21742;-62
2022/05/17 07:08:30;;;;;;;1.60;0.78;;;;;;;16.06;41.39;100302.00;1761445;81;21077;-60
2022/05/17 07:13:42;;;;;;;1.17;0.40;;;;;;;15.81;41.04;100301.30;1778896;79;21053;-61
2022/05/17 07:16:09;;;;;;;9.38;0.70;;;;;;;15.67;40.91;100303.41;1777393;79;21071;-61
2022/05/17 07:18:36;;;;;;;2.00;0.65;;;;;;;15.58;40.91;100303.96;1785567;78;21068;-61
2022/05/17 07:21:05;;;;;;;4.55;0.50;;;;;;;15.51;40.03;100311.34;1782435;79;21013;-63
2022/05/17 07:23:31;;;;;;;3.22;0.60;;;;;;;15.27;40.43;100305.73;1777404;79;21017;-62
2022/05/17 07:25:58;;;;;;;3.62;0.80;;;;;;;15.14;40.24;100310.00;1777063;79;20995;-62
2022/05/17 07:28:25;;;;;;;4.62;0.80;;;;;;;15.34;40.76;100312.33;1752176;79;21109;-61
2022/05/17 07:30:52;;;;;;;;;;;;;;;15.41;40.51;100316.31;1786491;79;20966;-61
2022/05/17 07:33:20;;;;;;;;;;;;;;;15.54;40.48;100318.22;1776262;79;20217;-62
2022/05/17 07:35:48;;;;;;;2.75;0.80;;;;;;;15.52;40.42;100320.12;1752808;81;20181;-61
2022/05/17 07:38:36;;;;;;;0.80;0.40;;;;;;;15.43;39.99;100311.81;1781058;79;21577;-61
2022/05/17 07:41:05;;;;;;;0.72;0.45;;;;;;;15.33;39.81;100319.85;1705503;83;21231;-59
2022/05/17 07:43:32;;;;;;;2.22;0.65;;;;;;;15.29;39.88;100327.55;1710719;83;21005;-59
2022/05/17 07:45:59;;;;;;;2.92;0.60;;;;;;;15.28;39.78;100323.20;1705299;83;21239;-59
2022/05/17 07:48:26;;;;;;;2.47;0.62;;;;;;;15.18;39.23;100331.27;1704375;82;21052;-59
2022/05/17 07:50:53;;;;;;;;;;;;;;;15.06;39.04;100337.20;1715039;82;21223;-61
2022/05/17 07:53:22;;;;;;;1.27;0.60;;;;;;;14.93;38.70;100339.20;1711144;83;21919;-61
2022/05/17 07:55:50;;;;;;;3.02;0.50;;;;;;;14.81;38.67;100345.13;1703147;82;21107;-61
2022/05/17 07:58:18;;;;;;;1.35;0.60;;;;;;;14.80;38.72;100345.22;1709414;83;20946;-61
2022/05/17 08:00:45;;;;;;;2.30;0.50;;;;;;;14.99;39.11;100333.60;1707492;81;21067;-61
2022/05/17 08:03:16;;;;;;;0.60;0.40;;;;;;;15.28;38.75;100334.20;1707628;82;20966;-61
2022/05/17 08:05:45;;;;;;;2.15;0.40;;;;;;;15.24;38.85;100336.64;1714070;82;21000;-60
2022/05/17 08:08:12;;;;;;;1.55;0.70;;;;;;;15.18;38.80;100336.05;1711560;82;21167;-60
2022/05/17 08:10:40;;;;;;;4.47;0.35;;;;;;;15.10;38.39;100341.37;1702969;83;21101;-61
2022/05/17 08:13:07;;;;;;;1.05;0.50;;;;;;;14.96;38.46;100341.66;1696141;83;20990;-60
2022/05/17 08:15:34;;;;;;;0.90;0.50;;;;;;;14.80;38.51;100346.54;1704369;82;21300;-61
2022/05/17 08:18:22;;;;;;;0.85;0.45;;;;;;;14.69;38.31;100351.91;1710953;83;21571;-61
2022/05/17 08:20:49;;;;;;;1.12;0.50;;;;;;;14.65;38.51;100353.48;1786414;78;21055;-58
2022/05/17 08:23:15;;;;;;;0.80;0.37;;;;;;;14.53;38.29;100355.81;1790925;78;21012;-61
2022/05/17 08:31:05;;;;;;;2.27;0.70;;;;;;;14.86;38.60;100351.45;1852082;75;22821;-60
2022/05/17 08:33:33;;;;;;;1.35;0.62;;;;;;;14.93;38.35;100357.61;1817178;77;20960;-60
2022/05/17 08:36:04;;;;;;;1.30;0.40;;;;;;;14.90;38.20;100355.16;1815530;77;21034;-60
2022/05/17 08:38:36;;;;;;;2.92;0.40;;;;;;;14.85;38.43;100354.55;1820840;77;21014;-60
2022/05/17 08:41:13;;;;;;;1.65;0.40;;;;;;;14.80;38.33;100352.64;1818418;77;21611;-61
2022/05/17 08:43:56;;;;;;;0.78;0.40;;;;;;;14.96;38.44;100362.70;1803606;77;20940;-61
2022/05/17 08:47:06;;;;;;;0.70;0.50;;;;;;;14.99;37.89;100362.53;1818398;77;21389;-60
2022/05/17 08:50:01;;;;;;;1.37;0.30;;;;;;;14.96;37.99;100364.02;1816078;77;21146;-59
2022/05/17 08:52:31;;;;;;;0.65;0.40;;;;;;;14.99;37.63;100370.41;1816879;77;20900;-60
2022/05/17 08:55:27;;;;;;;2.37;0.47;;;;;;;14.83;37.49;100366.08;1821621;77;21852;-60
2022/05/17 08:57:59;;;;;;;0.82;0.25;;;;;;;14.78;37.51;100370.27;1819035;77;21039;-61
2022/05/17 09:00:37;;;;;;;1.35;0.50;;;;;;;14.89;37.65;100365.27;1814909;77;20948;-60
2022/05/17 09:03:34;;;;;;;0.65;0.37;;;;;;;14.93;37.41;100370.77;1814183;77;21279;-61
2022/05/17 09:06:04;;;;;;;;;;;;;;;15.04;37.31;100369.30;1744639;80;21484;-63
2022/05/17 09:09:17;;;;;;;2.47;0.40;;;;;;;14.96;37.01;100377.16;1762757;80;20172;-61
2022/05/17 09:11:52;;;;;;;4.22;0.50;;;;;;;15.03;37.00;100376.81;1774361;80;22355;-62
2022/05/17 09:14:23;;;;;;;3.05;0.50;;;;;;;14.92;36.89;100374.30;1775451;79;20982;-64
2022/05/17 09:17:00;;;;;;;1.47;0.40;;;;;;;14.81;36.78;100374.51;1773791;79;22225;-65
2022/05/17 09:19:28;;;;;;;1.55;0.50;;;;;;;14.85;37.24;100372.11;1774121;79;21010;-64
2022/05/17 09:21:58;;;;;;;1.17;0.40;;;;;;;14.98;37.03;100366.10;1769117;79;21590;-63
2022/05/17 09:24:28;;;;;;;1.98;0.40;;;;;;;14.95;36.66;100379.39;1773310;80;21507;-62
2022/05/17 09:27:12;;;;;;;0.55;0.30;;;;;;;14.88;36.81;100378.05;1772361;80;21140;-62
2022/05/17 09:29:47;;;;;;;0.57;0.42;;;;;;;15.07;37.08;100379.64;1773072;80;21520;-61
2022/05/17 09:32:34;;;;;;;1.10;0.40;;;;;;;15.26;36.78;100369.80;1777975;79;20990;-62
2022/05/17 09:35:12;;;;;;;0.55;0.40;;;;;;;15.46;37.07;100363.42;1767779;79;20939;-62
2022/05/17 09:37:44;;;;;;;0.62;0.53;;;;;;;15.43;36.68;100364.45;1771797;80;21065;-62
2022/05/17 09:40:16;;;;;;;1.75;0.53;;;;;;;15.43;36.52;100373.66;1756566;79;20950;-62
2022/05/17 09:46:07;;;;;;;2.77;0.65;;;;;;;15.35;36.83;100374.56;1738119;79;22263;-60
2022/05/17 09:54:39;;;;;;;0.80;0.50;;;;;;;15.44;36.58;100375.34;1708978;83;21659;-62
2022/05/17 09:57:31;;;;;;;1.70;0.47;;;;;;;15.38;36.50;100379.64;1708106;83;21134;-61
2022/05/17 10:00:16;;;;;;;0.90;0.40;;;;;;;15.37;36.42;100375.30;1705244;82;21094;-61
2022/05/17 10:03:03;;;;;;;1.92;0.70;;;;;;;15.35;36.49;100373.72;1707867;83;20995;-63
2022/05/17 10:05:56;;;;;;;1.20;0.50;;;;;;;15.40;36.39;100372.52;1708245;83;21134;-63
2022/05/17 10:08:31;;;;;;;0.98;0.28;;;;;;;15.36;36.44;100373.61;1681218;83;20998;-63
2022/05/17 10:11:23;;;;;;;0.82;0.42;;;;;;;15.34;36.12;100369.37;1678470;83;21096;-62
2022/05/17 10:14:19;;;;;;;0.80;0.30;;;;;;;15.37;36.40;100371.82;1677802;84;21130;-62
2022/05/17 10:16:53;;;;;;;1.20;0.47;;;;;;;15.33;35.85;100384.31;1678213;83;21063;-62
2022/05/17 10:19:37;;;;;;;1.80;1.02;;;;;;;15.21;36.07;100381.91;1683981;83;21663;-62
2022/05/17 10:22:27;;;;;;;2.05;0.60;;;;;;;15.26;35.76;100377.69;1681028;84;21882;-61
2022/05/17 10:25:06;;;;;;;1.07;0.30;;;;;;;15.20;35.65;100375.41;1682974;83;21106;-62
2022/05/17 10:27:40;;;;;;;2.00;0.70;;;;;;;15.16;35.64;100380.00;1669264;85;21219;-62
2022/05/17 10:30:15;;;;;;;1.67;0.35;;;;;;;15.18;35.35;100377.30;1717003;83;21069;-62
2022/05/17 10:33:03;;;;;;;0.90;0.50;;;;;;;15.09;35.06;100385.67;1684688;84;21116;-63
2022/05/17 10:35:42;;;;;;;1.05;0.50;;;;;;;15.06;35.30;100384.53;1714660;82;21288;-61
2022/05/17 10:38:23;;;;;;;1.57;0.62;;;;;;;15.09;35.12;100392.25;1659313;85;21752;-62
2022/05/17 10:40:54;;;;;;;2.12;0.68;;;;;;;15.17;35.23;100382.16;1670622;84;21119;-61
2022/05/17 10:43:32;;;;;;;1.60;0.60;;;;;;;15.19;34.92;100388.19;1695559;83;21074;-61
2022/05/17 10:46:16;;;;;;;0.78;0.40;;;;;;;15.16;35.14;100387.05;1686390;83;20932;-62
2022/05/17 10:49:19;;;;;;;1.47;0.55;;;;;;;15.28;34.80;100386.35;1665734;85;21088;-62
2022/05/17 10:52:00;;;;;;;0.53;0.37;;;;;;;15.20;35.03;100385.92;1683042;84;21537;-61
2022/05/17 10:55:06;;;;;;;1.37;0.60;;;;;;;15.20;34.93;100392.50;1710651;81;20900;-62
2022/05/17 10:57:57;;;;;;;1.07;0.70;;;;;;;15.29;35.02;100390.70;1655260;84;21129;-62
2022/05/17 11:00:38;;;;;;;3.15;0.70;;;;;;;15.40;34.53;100383.05;1707693;83;21072;-60
2022/05/17 11:03:20;;;;;;;2.35;0.50;;;;;;;15.20;34.24;100396.45;1704317;83;21040;-62
2022/05/17 11:06:04;;;;;;;2.20;0.60;;;;;;;15.05;34.36;100389.42;1707389;81;22266;-60
2022/05/17 11:08:55;;;;;;;1.12;0.57;;;;;;;14.92;34.04;100384.81;1720915;81;21014;-60
2022/05/17 11:12:06;;;;;;;0.93;0.50;;;;;;;14.88;34.16;100392.98;1621545;88;21071;-60
2022/05/17 11:14:49;;;;;;;0.72;0.45;;;;;;;15.07;34.44;100405.95;1588814;88;21195;-60
2022/05/17 11:17:59;;;;;;;1.25;0.57;;;;;;;15.12;33.49;100406.55;1599701;88;21233;-60
2022/05/17 11:20:40;;;;;;;1.95;0.82;;;;;;;15.04;33.85;100400.86;1589109;88;21135;-60
2022/05/17 11:23:34;;;;;;;1.12;0.45;;;;;;;15.02;33.71;100406.69;1603380;89;21645;-60
2022/05/17 11:26:28;;;;;;;0.88;0.60;;;;;;;14.91;33.91;100403.33;1616263;86;21125;-61
2022/05/17 11:29:36;;;;;;;1.37;0.62;;;;;;;14.97;33.61;100406.45;1614100;87;21166;-61
2022/05/17 11:32:32;;;;;;;0.95;0.50;;;;;;;14.84;33.28;100413.30;1615316;87;20996;-62
2022/05/17 11:35:03;;;;;;;1.00;0.57;;;;;;;14.67;33.32;100405.48;1614104;87;22014;-61
2022/05/17 11:37:41;;;;;;;0.80;0.60;;;;;;;14.89;34.08;100397.30;1617151;85;21601;-61
2022/05/17 11:40:10;;;;;;;2.75;0.93;;;;;;;15.00;33.53;100408.91;1614963;87;21754;-61
2022/05/17 11:45:53;;;;;;;1.10;0.65;;;;;;;14.87;33.52;100413.17;1624033;87;21197;-62
2022/05/17 11:48:24;;;;;;;1.50;0.57;;;;;;;14.90;33.57;100418.27;1630126;85;21979;-61
2022/05/17 11:50:58;;;;;;;3.50;0.55;;;;;;;14.89;33.35;100411.28;1634555;86;21165;-61
2022/05/17 11:53:30;;;;;;;0.60;0.57;;;;;;;14.80;33.47;100413.11;1633390;86;21071;-61
2022/05/17 11:56:32;;;;;;;0.50;0.40;;;;;;;14.74;33.33;100410.34;1637950;86;21146;-62
2022/05/17 11:59:02;;;;;;;0.90;0.40;;;;;;;14.80;33.75;100398.64;1612786;86;21171;-62
2022/05/17 12:01:40;;;;;;;0.90;0.47;;;;;;;14.53;33.09;100418.88;1683926;83;21113;-62
2022/05/17 12:04:21;;;;;;;;;;;;;;;14.50;33.14;100407.19;1705332;83;21029;-62
2022/05/17 12:06:53;;;;;;;0.85;0.42;;;;;;;14.52;33.45;100408.00;1692884;83;20220;-61
2022/05/17 12:09:29;;;;;;;1.17;0.40;;;;;;;14.37;33.06;100408.78;1674438;85;21538;-62
2022/05/17 12:12:52;;;;;;;0.50;0.40;;;;;;;14.35;33.52;100410.63;1691308;83;21064;-62
2022/05/17 12:16:15;;;;;;;0.37;0.23;;;;;;;14.48;33.72;100406.44;1684021;83;22129;-62
2022/05/17 12:18:57;;;;;;;1.47;0.60;;;;;;;14.61;33.59;100413.23;1678789;83;21050;-61
2022/05/17 12:23:30;;;;;;;2.15;0.40;;;;;;;14.45;33.03;100403.98;1823936;77;22716;-60